Cleveland, North Carolina
Current Conditions -  °F | °C
As of 5:15 PM on Sunday 25 Jan 2015 (Local Time) from KRUQ Reporting Station
Clear Clear  
Wind Chill: 54°   Ceiling: Unl
Heat Index: 54°   Visibility: 10mi
Dew Point: 31°   Wind: 7mph
Humidity: 42%   Direction: 170°S
Pressure: 29.76"   Gusts: NA
Location:  35.73°N, 80.68°W
Report Text: KRUQ 252215Z AUTO 17006KT 10SM CLR 12/M01 A2976 RMK AO2 T01211006
Loading
Personal Weather Stations






























Interactive Weather Map New forecast layout! Learn more

10-Day Weather Forecast

Advertisements
Track Severe Weather on mobile